createdAt,value
2023-05-11T00:01:17.562Z,0.50
2023-05-11T00:03:44.634Z,0.77
2023-05-11T00:06:11.817Z,0.80
2023-05-11T00:08:38.768Z,0.70
2023-05-11T00:11:08.633Z,0.85
2023-05-11T00:13:35.792Z,0.80
2023-05-11T00:16:03.860Z,0.57
2023-05-11T00:18:31.388Z,0.60
2023-05-11T00:20:58.478Z,0.70
2023-05-11T00:23:25.476Z,0.80
2023-05-11T00:25:52.410Z,0.63
2023-05-11T00:28:19.386Z,0.70
2023-05-11T00:30:46.489Z,0.60
2023-05-11T00:33:13.554Z,0.68
2023-05-11T00:35:40.795Z,0.43
2023-05-11T00:38:07.773Z,0.70
2023-05-11T00:40:34.861Z,0.50
2023-05-11T00:43:01.845Z,0.50
2023-05-11T00:45:28.823Z,0.68
2023-05-11T00:47:55.868Z,0.63
2023-05-11T00:50:22.917Z,0.40
2023-05-11T00:52:50.375Z,0.57
2023-05-11T00:55:21.255Z,0.60
2023-05-11T00:57:48.477Z,0.52
2023-05-11T01:00:15.787Z,0.50
2023-05-11T01:02:43.076Z,0.50
2023-05-11T01:05:10.637Z,0.52
2023-05-11T01:07:50.317Z,0.50
2023-05-11T01:10:20.524Z,0.47
2023-05-11T01:12:50.196Z,0.40
2023-05-11T01:15:37.220Z,0.40
2023-05-11T01:18:07.220Z,0.52
2023-05-11T01:20:34.993Z,0.40
2023-05-11T01:23:29.396Z,0.40
2023-05-11T01:26:22.381Z,0.50
2023-05-11T01:29:13.624Z,0.45
2023-05-11T01:34:18.207Z,0.40
2023-05-11T01:36:52.628Z,0.40
2023-05-11T01:39:25.537Z,0.60
2023-05-11T01:41:54.807Z,0.50
2023-05-11T01:44:26.238Z,0.47
2023-05-11T01:46:54.248Z,0.40
2023-05-11T01:49:22.254Z,0.40
2023-05-11T01:51:51.856Z,0.40
2023-05-11T01:54:21.619Z,0.38
2023-05-11T01:56:50.595Z,0.35
2023-05-11T01:59:19.324Z,0.40
2023-05-11T02:01:46.709Z,0.55
2023-05-11T02:04:16.237Z,0.40
2023-05-11T02:06:44.383Z,0.47
2023-05-11T02:09:13.571Z,0.40
2023-05-11T02:11:43.185Z,0.40
2023-05-11T02:14:12.171Z,0.50
2023-05-11T02:16:39.700Z,0.50
2023-05-11T02:19:08.422Z,0.50
2023-05-11T02:21:37.138Z,0.22
2023-05-11T02:24:06.773Z,0.50
2023-05-11T02:26:33.746Z,0.40
2023-05-11T02:29:00.835Z,0.52
2023-05-11T02:31:30.728Z,0.40
2023-05-11T02:34:04.856Z,0.50
2023-05-11T02:36:35.923Z,0.40
2023-05-11T02:41:41.552Z,0.32
2023-05-11T02:44:12.610Z,0.35
2023-05-11T02:49:09.791Z,0.40
2023-05-11T02:51:38.069Z,0.40
2023-05-11T02:54:11.363Z,0.40
2023-05-11T02:56:39.338Z,0.35
2023-05-11T02:59:06.905Z,0.40
2023-05-11T03:01:34.237Z,0.50
2023-05-11T03:04:05.091Z,0.50
2023-05-11T03:06:33.646Z,0.40
2023-05-11T03:09:02.136Z,0.50
2023-05-11T03:11:29.475Z,0.50
2023-05-11T03:13:56.896Z,0.55
2023-05-11T03:16:25.025Z,0.50
2023-05-11T03:18:52.518Z,0.45
2023-05-11T03:21:21.688Z,0.45
2023-05-11T03:23:49.881Z,0.40
2023-05-11T03:26:22.402Z,0.52
2023-05-11T03:28:52.725Z,0.50
2023-05-11T03:31:19.908Z,0.40
2023-05-11T03:33:46.855Z,0.40
2023-05-11T03:36:15.164Z,0.30
2023-05-11T03:38:43.092Z,0.40
2023-05-11T03:41:11.592Z,0.50
2023-05-11T03:43:41.227Z,0.50
2023-05-11T03:46:09.259Z,0.40
2023-05-11T03:48:36.528Z,0.40
2023-05-11T03:51:05.225Z,0.40
2023-05-11T03:53:32.426Z,0.45
2023-05-11T03:55:59.493Z,0.40
2023-05-11T03:58:26.667Z,0.32
2023-05-11T04:00:53.618Z,0.30
2023-05-11T04:03:20.919Z,0.57
2023-05-11T04:05:47.985Z,0.40
2023-05-11T04:08:15.173Z,0.57
2023-05-11T04:10:42.246Z,0.68
2023-05-11T04:13:09.239Z,0.45
2023-05-11T04:15:37.876Z,0.38
2023-05-11T04:18:04.964Z,0.60
2023-05-11T04:20:31.997Z,0.50
2023-05-11T04:22:58.992Z,0.40
2023-05-11T04:25:26.488Z,0.60
2023-05-11T04:27:53.561Z,0.70
2023-05-11T04:30:22.031Z,1.20
2023-05-11T04:32:49.132Z,0.98
2023-05-11T04:35:16.432Z,0.90
2023-05-11T04:37:43.620Z,0.80
2023-05-11T04:40:11.390Z,2.00
2023-05-11T04:42:38.384Z,0.98
2023-05-11T04:45:05.768Z,0.98
2023-05-11T04:47:32.739Z,0.80
2023-05-11T04:49:59.908Z,1.23
2023-05-11T04:52:27.119Z,0.80
2023-05-11T04:54:54.117Z,0.80
2023-05-11T04:57:21.264Z,1.48
2023-05-11T04:59:48.397Z,1.10
2023-05-11T05:02:15.339Z,1.10
2023-05-11T05:04:42.327Z,1.10
2023-05-11T05:07:09.664Z,1.23
2023-05-11T05:09:36.601Z,1.17
2023-05-11T05:12:03.605Z,0.93
2023-05-11T05:14:32.056Z,1.00
2023-05-11T05:17:01.191Z,1.00
2023-05-11T05:19:28.368Z,1.05
2023-05-11T05:21:55.338Z,1.00
2023-05-11T05:24:22.274Z,0.60
2023-05-11T05:26:49.418Z,0.85
2023-05-11T05:29:16.510Z,1.10
2023-05-11T05:31:43.485Z,0.95
2023-05-11T05:34:10.640Z,0.95
2023-05-11T05:36:37.670Z,1.10
2023-05-11T05:39:09.275Z,1.17
2023-05-11T05:41:37.297Z,0.90
2023-05-11T05:44:04.380Z,1.00
2023-05-11T05:46:31.574Z,1.00
2023-05-11T05:48:58.773Z,0.70
2023-05-11T05:51:25.890Z,1.10
2023-05-11T05:53:52.846Z,1.08
2023-05-11T05:56:19.889Z,1.30
2023-05-11T05:58:46.878Z,1.45
2023-05-11T06:01:14.048Z,1.92
2023-05-11T06:03:41.175Z,1.42
2023-05-11T06:06:08.424Z,1.02
2023-05-11T06:08:35.414Z,0.70
2023-05-11T06:11:02.398Z,0.90
2023-05-11T06:13:29.822Z,1.20
2023-05-11T06:15:56.899Z,0.95
2023-05-11T06:18:23.975Z,1.33
2023-05-11T06:20:50.917Z,1.02
2023-05-11T06:23:17.977Z,1.17
2023-05-11T06:25:45.239Z,1.70
2023-05-11T06:28:12.244Z,1.15
2023-05-11T06:30:39.786Z,1.20
2023-05-11T06:33:06.794Z,1.33
2023-05-11T06:35:34.025Z,1.63
2023-05-11T06:38:01.013Z,2.17
2023-05-11T06:40:28.182Z,1.55
2023-05-11T06:42:55.276Z,1.30
2023-05-11T06:45:22.341Z,1.23
2023-05-11T06:47:50.000Z,1.23
2023-05-11T06:50:19.446Z,1.20
2023-05-11T06:52:47.933Z,0.82
2023-05-11T06:55:15.075Z,1.00
2023-05-11T06:57:42.482Z,0.90
2023-05-11T07:00:10.038Z,0.93
2023-05-11T07:02:37.428Z,0.88
2023-05-11T07:05:04.824Z,1.80
2023-05-11T07:07:32.098Z,1.33
2023-05-11T07:09:59.114Z,1.00
2023-05-11T07:12:26.753Z,1.50
2023-05-11T07:14:53.790Z,1.52
2023-05-11T07:17:21.094Z,1.45
2023-05-11T07:19:48.346Z,1.55
2023-05-11T07:22:15.358Z,1.05
2023-05-11T07:24:42.698Z,1.17
2023-05-11T07:27:09.834Z,0.82
2023-05-11T07:29:37.336Z,1.17
2023-05-11T07:32:04.892Z,1.15
2023-05-11T07:34:32.048Z,1.30
2023-05-11T07:36:59.294Z,1.35
2023-05-11T07:39:26.405Z,1.15
2023-05-11T07:41:53.434Z,1.30
2023-05-11T07:44:20.806Z,1.00
2023-05-11T07:46:47.927Z,1.40
2023-05-11T07:49:18.833Z,0.80
2023-05-11T07:51:47.896Z,1.10
2023-05-11T07:54:15.056Z,0.90
2023-05-11T07:56:42.742Z,0.90
2023-05-11T07:59:10.054Z,1.05
2023-05-11T08:01:37.260Z,0.60
2023-05-11T08:04:04.450Z,0.70
2023-05-11T08:06:31.685Z,1.13
2023-05-11T08:08:58.766Z,0.60
2023-05-11T08:11:26.588Z,0.52
2023-05-11T08:13:53.562Z,0.90
2023-05-11T08:16:20.693Z,0.80
2023-05-11T08:18:48.147Z,1.02
2023-05-11T08:21:15.164Z,0.70
2023-05-11T08:23:43.906Z,0.70
2023-05-11T08:26:12.101Z,1.00
2023-05-11T08:28:39.384Z,0.47
2023-05-11T08:31:06.703Z,0.70
2023-05-11T08:33:38.080Z,0.60
2023-05-11T08:36:07.289Z,0.80
2023-05-11T08:38:35.758Z,0.70
2023-05-11T08:41:03.598Z,0.60
2023-05-11T08:43:32.753Z,0.70
2023-05-11T08:46:04.126Z,0.70
2023-05-11T08:48:33.940Z,0.57
2023-05-11T08:51:01.391Z,0.60
2023-05-11T08:53:28.811Z,0.60
2023-05-11T08:55:59.737Z,0.80
2023-05-11T08:58:28.283Z,0.70
2023-05-11T09:00:55.975Z,0.75
2023-05-11T09:03:24.043Z,0.80
2023-05-11T09:05:52.602Z,0.68
2023-05-11T09:08:21.589Z,0.73
2023-05-11T09:10:50.067Z,0.73
2023-05-11T09:13:17.364Z,0.93
2023-05-11T09:15:44.442Z,0.70
2023-05-11T09:18:11.773Z,0.60
2023-05-11T09:20:43.771Z,0.50
2023-05-11T09:23:10.956Z,0.60
2023-05-11T09:25:40.183Z,0.88
2023-05-11T09:28:07.242Z,0.60
2023-05-11T09:30:34.445Z,0.93
2023-05-11T09:33:03.018Z,1.60
2023-05-11T09:35:34.869Z,1.25
2023-05-11T09:38:08.747Z,1.00
2023-05-11T09:40:38.451Z,1.00
2023-05-11T09:43:31.851Z,0.85
2023-05-11T09:46:07.719Z,0.98
2023-05-11T09:48:35.698Z,1.00
2023-05-11T09:51:07.775Z,0.80
2023-05-11T09:53:46.406Z,1.05
2023-05-11T09:56:14.349Z,0.98
2023-05-11T09:58:50.412Z,0.90
2023-05-11T10:01:20.063Z,0.80
2023-05-11T10:03:52.571Z,0.70
2023-05-11T10:06:20.446Z,1.00
2023-05-11T10:08:48.519Z,0.70
2023-05-11T10:11:15.848Z,0.75
2023-05-11T10:13:46.209Z,0.52
2023-05-11T10:16:16.868Z,0.60
2023-05-11T10:18:45.193Z,0.88
2023-05-11T10:21:15.779Z,0.80
2023-05-11T10:23:43.618Z,0.60
2023-05-11T10:26:11.533Z,0.80
2023-05-11T10:28:39.016Z,0.70
2023-05-11T10:31:07.298Z,0.73
2023-05-11T10:33:35.074Z,0.70
2023-05-11T10:36:03.468Z,0.70
2023-05-11T10:38:30.478Z,0.70
2023-05-11T10:41:08.073Z,0.70
2023-05-11T10:43:50.457Z,0.60
2023-05-11T10:46:42.906Z,0.68
2023-05-11T10:49:34.262Z,0.90
2023-05-11T10:52:17.048Z,1.13
2023-05-11T10:54:53.039Z,0.90
2023-05-11T10:57:42.492Z,1.05
2023-05-11T11:00:19.089Z,1.10
2023-05-11T11:02:46.664Z,1.33
2023-05-11T11:05:18.216Z,1.38
2023-05-11T11:08:04.528Z,0.80
2023-05-11T11:10:34.609Z,0.93
2023-05-11T11:13:10.482Z,1.75
2023-05-11T11:15:56.456Z,1.52
2023-05-11T11:18:31.402Z,1.38
2023-05-11T11:20:59.388Z,1.08
2023-05-11T11:23:45.439Z,1.30
2023-05-11T11:26:17.718Z,1.00
2023-05-11T11:29:02.953Z,1.40
2023-05-11T11:31:31.211Z,1.75
2023-05-11T11:34:01.520Z,1.33
2023-05-11T11:36:56.641Z,1.33
2023-05-11T11:39:28.181Z,1.00
2023-05-11T11:42:12.339Z,1.10
2023-05-11T11:44:41.573Z,1.23
2023-05-11T11:47:16.432Z,2.15
2023-05-11T11:49:49.367Z,2.67
2023-05-11T11:52:31.507Z,1.17
2023-05-11T11:55:03.199Z,1.00
2023-05-11T11:57:30.509Z,1.02
2023-05-11T11:59:58.335Z,0.60
2023-05-11T12:02:28.064Z,0.88
2023-05-11T12:05:22.989Z,0.95
2023-05-11T12:07:52.541Z,0.77
2023-05-11T12:10:22.024Z,0.77
2023-05-11T12:12:51.773Z,1.35
2023-05-11T12:15:30.821Z,1.67
2023-05-11T12:17:58.317Z,1.05
2023-05-11T12:20:26.585Z,3.40
2023-05-11T12:22:54.005Z,2.35
2023-05-11T12:25:22.254Z,1.60
2023-05-11T12:28:02.564Z,1.60
2023-05-11T12:30:31.904Z,1.40
2023-05-11T12:33:04.806Z,1.27
2023-05-11T12:35:36.525Z,1.42
2023-05-11T12:38:04.015Z,1.63
2023-05-11T12:40:31.662Z,1.70
2023-05-11T12:43:00.967Z,2.28
2023-05-11T12:45:29.628Z,1.98
2023-05-11T12:47:58.932Z,2.25
2023-05-11T12:50:26.307Z,2.03
2023-05-11T12:52:53.682Z,1.55
2023-05-11T12:55:31.808Z,1.30
2023-05-11T12:58:36.327Z,1.30
2023-05-11T13:01:03.638Z,1.08
2023-05-11T13:03:34.710Z,1.40
2023-05-11T13:06:10.779Z,1.35
2023-05-11T13:08:46.502Z,1.33
2023-05-11T13:11:27.772Z,0.93
2023-05-11T13:13:58.183Z,0.77
2023-05-11T13:16:32.585Z,1.40
2023-05-11T13:19:05.243Z,0.95
2023-05-11T13:21:33.972Z,0.98
2023-05-11T13:24:05.243Z,1.48
2023-05-11T13:26:33.345Z,1.88
2023-05-11T13:29:09.415Z,2.55
2023-05-11T13:31:49.033Z,1.52
2023-05-11T13:34:17.148Z,1.35
2023-05-11T13:36:45.227Z,1.58
2023-05-11T13:39:13.979Z,1.70
2023-05-11T13:41:41.336Z,2.38
2023-05-11T13:44:08.825Z,1.40
2023-05-11T13:46:36.828Z,1.80
2023-05-11T13:49:05.394Z,1.40
2023-05-11T13:51:34.021Z,1.13
2023-05-11T13:54:02.972Z,2.08
2023-05-11T13:56:30.574Z,1.90
2023-05-11T13:58:59.971Z,2.03
2023-05-11T14:01:28.113Z,2.55
2023-05-11T14:03:56.944Z,2.80
2023-05-11T14:06:26.356Z,2.80
2023-05-11T14:08:54.625Z,2.92
2023-05-11T14:11:21.956Z,2.45
2023-05-11T14:13:49.315Z,2.05
2023-05-11T14:16:16.584Z,1.58
2023-05-11T14:18:43.905Z,1.70
2023-05-11T14:21:11.245Z,1.27
2023-05-11T14:23:43.156Z,1.65
2023-05-11T14:26:14.634Z,1.88
2023-05-11T14:28:41.790Z,2.20
2023-05-11T14:31:09.364Z,1.90
2023-05-11T14:33:36.584Z,2.03
2023-05-11T14:36:04.294Z,1.92
2023-05-11T14:38:33.195Z,2.60
2023-05-11T14:41:00.522Z,2.17
2023-05-11T14:43:27.932Z,1.92
2023-05-11T14:45:55.411Z,1.90
2023-05-11T14:48:23.785Z,1.70
2023-05-11T14:50:50.881Z,1.58
2023-05-11T14:53:18.387Z,1.55
2023-05-11T14:55:45.685Z,1.60
2023-05-11T14:58:12.815Z,1.40
2023-05-11T15:00:40.925Z,1.70
2023-05-11T15:03:08.995Z,1.30
2023-05-11T15:05:36.481Z,1.88
2023-05-11T15:08:03.746Z,1.85
2023-05-11T15:10:31.097Z,1.85
2023-05-11T15:12:58.762Z,1.90
2023-05-11T15:15:26.211Z,2.42
2023-05-11T15:17:53.510Z,1.95
2023-05-11T15:20:20.879Z,1.85
2023-05-11T15:22:48.055Z,2.00
2023-05-11T15:25:15.225Z,2.90
2023-05-11T15:27:42.473Z,2.90
2023-05-11T15:30:10.347Z,3.30
2023-05-11T15:32:37.555Z,4.00
2023-05-11T15:35:05.088Z,3.30
2023-05-11T15:37:32.255Z,3.55
2023-05-11T15:40:01.099Z,4.10
2023-05-11T15:42:29.192Z,5.22
2023-05-11T15:44:56.969Z,5.63
2023-05-11T15:47:24.991Z,4.32
2023-05-11T15:49:53.987Z,3.80
2023-05-11T15:52:21.718Z,3.92
2023-05-11T15:54:49.174Z,3.65
2023-05-11T15:57:17.013Z,3.10
2023-05-11T15:59:44.486Z,3.88
2023-05-11T16:02:13.137Z,3.85
2023-05-11T16:04:41.503Z,3.15
2023-05-11T16:07:09.803Z,3.05
2023-05-11T16:09:37.575Z,3.20
2023-05-11T16:12:09.503Z,2.58
2023-05-11T16:14:36.887Z,2.65
2023-05-11T16:17:04.755Z,2.20
2023-05-11T16:19:35.078Z,2.90
2023-05-11T16:22:02.582Z,2.45
2023-05-11T16:24:33.481Z,2.50
2023-05-11T16:27:03.175Z,2.10
2023-05-11T16:29:30.607Z,1.80
2023-05-11T16:31:57.936Z,1.80
2023-05-11T16:34:25.280Z,2.10
2023-05-11T16:36:55.332Z,1.63
2023-05-11T16:39:24.984Z,1.60
2023-05-11T16:41:52.486Z,1.88
2023-05-11T16:44:19.836Z,2.28
2023-05-11T16:46:47.935Z,1.65
2023-05-11T16:49:15.558Z,1.90
2023-05-11T16:51:44.351Z,2.33
2023-05-11T16:54:13.593Z,1.73
2023-05-11T16:56:41.182Z,2.15
2023-05-11T16:59:10.722Z,2.28
2023-05-11T17:01:38.285Z,1.60
2023-05-11T17:04:05.676Z,1.90
2023-05-11T17:06:33.991Z,1.70
2023-05-11T17:09:01.132Z,1.60
2023-05-11T17:11:28.386Z,1.50
2023-05-11T17:13:55.697Z,3.00
2023-05-11T17:16:23.921Z,2.97
2023-05-11T17:18:52.265Z,2.35
2023-05-11T17:21:20.941Z,2.58
2023-05-11T17:23:49.703Z,2.83
2023-05-11T17:26:19.095Z,2.22
2023-05-11T17:28:47.951Z,2.28
2023-05-11T17:31:16.345Z,2.35
2023-05-11T17:33:44.828Z,3.03
2023-05-11T17:36:13.270Z,2.90
2023-05-11T17:38:40.722Z,3.05
2023-05-11T17:41:08.352Z,2.90
2023-05-11T17:43:38.313Z,2.95
2023-05-11T17:46:06.615Z,5.75
2023-05-11T17:48:34.464Z,2.92
2023-05-11T17:51:02.654Z,2.83
2023-05-11T17:53:30.202Z,2.80
2023-05-11T17:56:01.185Z,3.08
2023-05-11T17:58:28.691Z,3.42
2023-05-11T18:00:56.973Z,4.07
2023-05-11T18:03:25.071Z,4.20
2023-05-11T18:05:54.290Z,4.00
2023-05-11T18:08:21.956Z,3.55
2023-05-11T18:10:49.810Z,3.85
2023-05-11T18:13:17.561Z,4.15
2023-05-11T18:15:45.614Z,3.65
2023-05-11T18:18:13.403Z,3.25
2023-05-11T18:20:40.841Z,3.72
2023-05-11T18:23:08.192Z,3.50
2023-05-11T18:25:35.419Z,3.22
2023-05-11T18:28:05.010Z,3.40
2023-05-11T18:30:34.987Z,4.18
2023-05-11T18:33:02.998Z,3.00
2023-05-11T18:35:30.871Z,6.75
2023-05-11T18:37:59.910Z,6.07
2023-05-11T18:40:27.701Z,5.07
2023-05-11T18:42:56.825Z,5.25
2023-05-11T18:45:24.140Z,5.68
2023-05-11T18:47:52.253Z,5.53
2023-05-11T18:50:21.010Z,4.93
2023-05-11T18:52:48.439Z,4.53
2023-05-11T18:55:15.775Z,4.53
2023-05-11T18:57:43.604Z,4.78
2023-05-11T19:00:12.015Z,4.75
2023-05-11T19:02:39.010Z,5.45
2023-05-11T19:05:07.195Z,3.67
2023-05-11T19:07:34.712Z,4.68
2023-05-11T19:10:01.951Z,4.40
2023-05-11T19:12:29.337Z,3.80
2023-05-11T19:14:57.279Z,4.10
2023-05-11T19:17:24.521Z,3.75
2023-05-11T19:19:52.622Z,3.80
2023-05-11T19:22:21.758Z,3.50
2023-05-11T19:24:48.975Z,3.42
2023-05-11T19:27:16.317Z,4.10
2023-05-11T19:29:43.682Z,3.40
2023-05-11T19:32:11.096Z,3.50
2023-05-11T19:34:38.616Z,3.20
2023-05-11T19:37:06.459Z,4.28
2023-05-11T19:39:33.726Z,4.32
2023-05-11T19:42:02.893Z,3.65
2023-05-11T19:44:33.495Z,3.70
2023-05-11T19:47:00.758Z,4.10
2023-05-11T19:49:31.262Z,4.55
2023-05-11T19:51:59.803Z,3.92
2023-05-11T19:54:28.142Z,3.90
2023-05-11T19:56:57.975Z,4.40
2023-05-11T19:59:28.013Z,4.13
2023-05-11T20:01:55.324Z,3.58
2023-05-11T20:04:22.519Z,3.60
2023-05-11T20:06:49.880Z,3.80
2023-05-11T20:09:18.677Z,3.85
2023-05-11T20:11:46.349Z,4.20
2023-05-11T20:14:14.004Z,3.72
2023-05-11T20:16:41.651Z,3.80
2023-05-11T20:19:09.998Z,3.67
2023-05-11T20:21:37.710Z,3.33
2023-05-11T20:24:05.315Z,3.65
2023-05-11T20:26:32.620Z,3.50
2023-05-11T20:28:59.763Z,3.95
2023-05-11T20:31:27.886Z,3.65
2023-05-11T20:36:27.501Z,3.40
2023-05-11T20:38:54.785Z,3.88
2023-05-11T20:41:23.374Z,3.92
2023-05-11T20:43:52.569Z,3.97
2023-05-11T20:46:19.911Z,3.60
2023-05-11T20:48:51.513Z,3.58
2023-05-11T20:51:23.853Z,3.42
2023-05-11T20:53:52.093Z,4.00
2023-05-11T20:56:19.218Z,3.67
2023-05-11T20:58:48.156Z,3.33
2023-05-11T21:01:16.178Z,4.60
2023-05-11T21:03:43.615Z,9.65
2023-05-11T21:06:10.897Z,11.07
2023-05-11T21:08:38.019Z,11.57
2023-05-11T21:11:05.277Z,12.43
2023-05-11T21:13:32.854Z,9.63
2023-05-11T21:16:00.266Z,9.23
2023-05-11T21:18:32.472Z,8.45
2023-05-11T21:21:00.210Z,8.35
2023-05-11T21:23:28.640Z,6.95
2023-05-11T21:25:57.100Z,6.70
2023-05-11T21:28:28.169Z,6.07
2023-05-11T21:33:22.357Z,6.10
2023-05-11T21:35:49.801Z,5.68
2023-05-11T21:38:18.295Z,5.88
2023-05-11T21:40:51.876Z,5.20
2023-05-11T21:43:22.493Z,5.82
2023-05-11T21:45:50.864Z,5.90
2023-05-11T21:48:18.117Z,5.22
2023-05-11T21:50:45.246Z,5.50
2023-05-11T21:53:12.563Z,5.68
2023-05-11T21:55:39.750Z,5.45
2023-05-11T21:58:06.931Z,4.88
2023-05-11T22:00:35.398Z,5.10
2023-05-11T22:03:03.036Z,5.25
2023-05-11T22:05:30.387Z,5.05
2023-05-11T22:08:06.678Z,5.40
2023-05-11T22:10:40.721Z,5.10
2023-05-11T22:13:07.790Z,5.53
2023-05-11T22:15:34.829Z,5.18
2023-05-11T22:18:01.837Z,5.03
2023-05-11T22:20:28.965Z,4.85
2023-05-11T22:22:55.969Z,4.75
2023-05-11T22:25:23.238Z,4.90
2023-05-11T22:27:50.638Z,4.97
2023-05-11T22:30:18.641Z,4.85
2023-05-11T22:32:46.076Z,5.53
2023-05-11T22:35:13.118Z,4.88
2023-05-11T22:37:40.404Z,4.88
2023-05-11T22:40:07.973Z,4.93
2023-05-11T22:42:35.192Z,4.82
2023-05-11T22:45:02.831Z,4.97
2023-05-11T22:47:29.950Z,4.65
2023-05-11T22:49:57.113Z,5.18
2023-05-11T22:52:25.403Z,5.07
2023-05-11T22:54:58.096Z,5.10
2023-05-11T22:57:26.899Z,5.22
2023-05-11T22:59:53.992Z,5.32
2023-05-11T23:02:21.458Z,5.32
2023-05-11T23:04:52.834Z,5.72
2023-05-11T23:07:20.252Z,5.03
2023-05-11T23:09:48.042Z,5.22
2023-05-11T23:12:15.050Z,5.40
2023-05-11T23:14:42.200Z,5.50
2023-05-11T23:17:09.504Z,5.20
2023-05-11T23:19:36.967Z,5.70
2023-05-11T23:22:04.277Z,5.47
2023-05-11T23:24:31.574Z,5.70
2023-05-11T23:26:59.342Z,6.35
2023-05-11T23:29:28.574Z,5.32
2023-05-11T23:31:56.508Z,5.75
2023-05-11T23:34:23.532Z,6.03
2023-05-11T23:36:50.658Z,6.30
2023-05-11T23:39:32.951Z,5.47
2023-05-11T23:42:01.090Z,6.53
2023-05-11T23:44:28.551Z,5.88
2023-05-11T23:46:55.519Z,6.47
2023-05-11T23:49:22.791Z,5.78
2023-05-11T23:51:50.686Z,5.75
2023-05-11T23:54:17.636Z,6.18
2023-05-11T23:56:45.126Z,6.30
2023-05-11T23:59:12.249Z,5.32
